Time;durP1;ratioP1;P1;durP2;ratioP2;P2;SDS_P1;SDS_P2;PMS_P1;PMS_P2;Temp;Humidity;BMP_temperature;BMP_pressure;BME280_temperature;BME280_humidity;BME280_pressure;Samples;Min_cycle;Max_cycle;Signal;HPM_P1;HPM_P2
2023/09/26 00:00:20;;;;;;;0.40;0.40;;;;;;;12.63;100.00;100646.41;5091245;28;20131;-60
2023/09/26 00:02:50;;;;;;;0.40;0.40;;;;;;;12.60;100.00;100643.81;5090233;28;20097;-60
2023/09/26 00:05:16;;;;;;;0.40;0.40;;;;;;;12.61;100.00;100655.38;5073851;28;20388;-60
2023/09/26 00:07:42;;;;;;;0.45;0.45;;;;;;;12.60;100.00;100653.63;5070292;28;20078;-58
2023/09/26 00:10:10;;;;;;;0.40;0.40;;;;;;;12.53;100.00;100654.72;5074473;28;20805;-58
2023/09/26 00:12:36;;;;;;;0.47;0.47;;;;;;;12.45;100.00;100662.09;5090369;28;20681;-58
2023/09/26 00:15:01;;;;;;;0.40;0.40;;;;;;;12.38;100.00;100664.06;5085193;28;20111;-58
2023/09/26 00:17:27;;;;;;;0.50;0.50;;;;;;;12.37;100.00;100669.47;5070619;28;20082;-58
2023/09/26 00:19:52;;;;;;;0.50;0.50;;;;;;;12.36;100.00;100665.91;5083678;28;20043;-58
2023/09/26 00:22:18;;;;;;;0.43;0.43;;;;;;;12.34;100.00;100666.88;5075629;28;20043;-58
2023/09/26 00:24:43;;;;;;;0.40;0.40;;;;;;;12.30;100.00;100666.09;5070505;28;20040;-58
2023/09/26 00:27:08;;;;;;;0.40;0.40;;;;;;;12.30;100.00;100671.44;5072850;28;20024;-58
2023/09/26 00:29:34;;;;;;;0.40;0.40;;;;;;;12.31;100.00;100657.16;5069566;28;20487;-58
2023/09/26 00:31:59;;;;;;;0.50;0.50;;;;;;;12.30;100.00;100658.09;5069542;28;20024;-58
2023/09/26 00:34:25;;;;;;;0.47;0.47;;;;;;;12.28;100.00;100651.03;5074255;28;20036;-58
2023/09/26 00:36:51;;;;;;;0.50;0.50;;;;;;;12.30;100.00;100650.09;5089586;28;20028;-58
2023/09/26 00:39:17;;;;;;;0.47;0.47;;;;;;;12.31;100.00;100657.16;5084689;28;20364;-58
2023/09/26 00:41:43;;;;;;;0.50;0.50;;;;;;;12.28;100.00;100654.59;5089397;28;20566;-58
2023/09/26 00:44:11;;;;;;;0.50;0.50;;;;;;;12.27;100.00;100658.19;5088986;28;20048;-58
2023/09/26 00:46:36;;;;;;;0.40;0.40;;;;;;;12.25;100.00;100657.34;5090590;28;20107;-58
2023/09/26 00:49:03;;;;;;;0.40;0.40;;;;;;;12.17;100.00;100654.03;5086619;28;20110;-58
2023/09/26 00:51:30;;;;;;;0.50;0.50;;;;;;;12.15;100.00;100660.31;5090703;28;20479;-58
2023/09/26 00:53:56;;;;;;;0.40;0.40;;;;;;;12.13;100.00;100665.69;5089908;28;20032;-58
2023/09/26 00:56:23;;;;;;;0.40;0.40;;;;;;;12.11;100.00;100659.53;5089452;28;20031;-58
2023/09/26 00:58:49;;;;;;;0.40;0.40;;;;;;;12.06;100.00;100661.44;5087123;28;20463;-58
2023/09/26 01:01:15;;;;;;;0.50;0.50;;;;;;;11.99;100.00;100659.91;5090086;28;20109;-58
2023/09/26 01:03:40;;;;;;;0.50;0.50;;;;;;;12.02;100.00;100662.47;5079761;28;20059;-58
2023/09/26 01:06:06;;;;;;;0.40;0.40;;;;;;;12.00;100.00;100663.41;5073454;28;20028;-58
2023/09/26 01:08:32;;;;;;;0.40;0.40;;;;;;;12.00;100.00;100658.97;5087859;28;20034;-57
2023/09/26 01:10:58;;;;;;;0.40;0.40;;;;;;;12.00;100.00;100661.63;5078452;28;20047;-57
2023/09/26 01:13:24;;;;;;;0.40;0.40;;;;;;;11.99;100.00;100659.91;5088869;28;20042;-58
2023/09/26 01:15:53;;;;;;;0.50;0.50;;;;;;;12.08;100.00;100664.94;5085641;28;20570;-58
2023/09/26 01:18:23;;;;;;;0.40;0.40;;;;;;;12.10;100.00;100668.47;5068421;28;20037;-57
2023/09/26 01:20:49;;;;;;;0.50;0.50;;;;;;;12.14;100.00;100667.44;5068369;28;20024;-57
2023/09/26 01:23:15;;;;;;;0.40;0.40;;;;;;;12.14;100.00;100662.09;5070493;28;20059;-57
2023/09/26 01:25:42;;;;;;;0.50;0.50;;;;;;;12.14;100.00;100662.09;5068483;28;20127;-58
2023/09/26 01:28:10;;;;;;;0.40;0.40;;;;;;;12.09;100.00;100661.38;5068352;28;20024;-57
2023/09/26 01:30:38;;;;;;;0.50;0.50;;;;;;;12.03;100.00;100666.00;5068621;28;20777;-57
2023/09/26 01:33:08;;;;;;;0.50;0.50;;;;;;;11.99;100.00;100657.22;5064783;28;20123;-57
2023/09/26 01:35:34;;;;;;;0.50;0.50;;;;;;;11.93;100.00;100655.59;5068303;28;20024;-58
2023/09/26 01:37:59;;;;;;;0.50;0.50;;;;;;;11.91;100.00;100652.09;5080440;28;20032;-57
2023/09/26 01:40:25;;;;;;;0.50;0.50;;;;;;;11.87;100.00;100646.91;5087936;28;20035;-58
2023/09/26 01:42:51;;;;;;;0.47;0.47;;;;;;;11.90;100.00;100641.47;5085466;28;20028;-58
2023/09/26 01:45:16;;;;;;;0.40;0.40;;;;;;;11.91;100.00;100646.75;5089145;28;20814;-58
2023/09/26 01:47:47;;;;;;;0.50;0.50;;;;;;;11.97;100.00;100645.72;5088906;28;20028;-58
2023/09/26 01:50:17;;;;;;;0.50;0.50;;;;;;;12.00;100.00;100650.97;5088409;28;20028;-58
2023/09/26 01:52:43;;;;;;;0.50;0.50;;;;;;;11.98;100.00;100655.47;5079563;28;20054;-58
2023/09/26 01:55:20;;;;;;;0.50;0.50;;;;;;;11.94;100.00;100652.00;5076237;28;20745;-57
2023/09/26 01:57:46;;;;;;;0.50;0.50;;;;;;;11.92;100.00;100652.97;5085630;28;20043;-58
2023/09/26 02:00:13;;;;;;;0.40;0.40;;;;;;;11.81;100.00;100639.09;5068231;28;20025;-57
2023/09/26 02:02:39;;;;;;;0.50;0.50;;;;;;;11.81;100.00;100650.59;5072653;28;20060;-57
2023/09/26 02:05:12;;;;;;;0.47;0.47;;;;;;;11.75;100.00;100649.88;5089024;28;20125;-57
2023/09/26 02:07:38;;;;;;;0.40;0.40;;;;;;;11.67;100.00;100649.22;5081195;28;20132;-57
2023/09/26 02:10:04;;;;;;;0.50;0.50;;;;;;;11.66;100.00;100660.81;5070743;28;20779;-58
2023/09/26 02:12:37;;;;;;;0.40;0.40;;;;;;;11.65;100.00;100664.38;5087121;28;20040;-57
2023/09/26 02:15:08;;;;;;;0.50;0.50;;;;;;;11.66;100.00;100663.47;5069027;28;20024;-58
2023/09/26 02:17:37;;;;;;;0.50;0.50;;;;;;;11.60;100.00;100659.16;5068688;28;20037;-58
2023/09/26 02:20:08;;;;;;;0.50;0.50;;;;;;;11.62;100.00;100670.63;5070701;28;20142;-58
2023/09/26 02:22:35;;;;;;;0.50;0.50;;;;;;;11.60;100.00;100671.59;5067334;28;20460;-58
2023/09/26 02:25:01;;;;;;;0.50;0.50;;;;;;;11.54;100.00;100669.09;5071406;28;20698;-57
2023/09/26 02:27:26;;;;;;;0.50;0.50;;;;;;;11.45;100.00;100662.19;5087400;28;20032;-58
2023/09/26 02:29:51;;;;;;;0.50;0.50;;;;;;;11.35;100.00;100665.16;5087479;28;20027;-58
2023/09/26 02:32:17;;;;;;;0.50;0.50;;;;;;;11.32;100.00;100670.53;5087170;28;20035;-57
2023/09/26 02:34:45;;;;;;;0.50;0.50;;;;;;;11.26;100.00;100663.59;5078265;28;20031;-57
2023/09/26 02:37:11;;;;;;;0.50;0.50;;;;;;;11.23;100.00;100660.13;5068987;28;20044;-58
2023/09/26 02:39:36;;;;;;;0.50;0.50;;;;;;;11.21;100.00;100656.63;5069131;28;20032;-57
2023/09/26 02:42:01;;;;;;;0.50;0.50;;;;;;;11.20;100.00;100657.56;5085895;28;20449;-58
2023/09/26 02:44:27;;;;;;;0.50;0.50;;;;;;;11.18;100.00;100656.72;5087442;28;20081;-58
2023/09/26 02:46:52;;;;;;;0.50;0.50;;;;;;;11.17;100.00;100660.28;5088527;28;20028;-57
2023/09/26 02:49:18;;;;;;;0.50;0.50;;;;;;;11.18;100.00;100662.03;5084569;28;20028;-58
2023/09/26 02:51:43;;;;;;;0.50;0.50;;;;;;;11.15;100.00;100656.78;5087747;28;20024;-57
2023/09/26 02:54:09;;;;;;;0.50;0.50;;;;;;;11.16;100.00;100655.88;5091431;28;20099;-57
2023/09/26 02:56:34;;;;;;;0.50;0.50;;;;;;;11.16;100.00;100653.19;5092942;28;20128;-57
2023/09/26 02:58:59;;;;;;;0.50;0.50;;;;;;;11.10;100.00;100640.06;5081311;28;20032;-58
2023/09/26 03:01:25;;;;;;;0.50;0.50;;;;;;;11.11;100.00;100647.13;5086784;28;20097;-58
2023/09/26 03:03:53;;;;;;;0.50;0.50;;;;;;;11.08;100.00;100649.84;5085352;28;20033;-58
2023/09/26 03:06:18;;;;;;;0.50;0.50;;;;;;;11.01;100.00;100648.25;5082256;28;20027;-58
2023/09/26 03:08:44;;;;;;;0.50;0.50;;;;;;;10.99;100.00;100650.09;5090757;28;20028;-58
2023/09/26 03:11:09;;;;;;;0.50;0.50;;;;;;;11.05;100.00;100647.28;5083018;28;20048;-58
2023/09/26 03:13:35;;;;;;;0.50;0.50;;;;;;;11.12;100.00;100646.22;5092096;28;20099;-57
2023/09/26 03:16:02;;;;;;;0.50;0.50;;;;;;;11.13;100.00;100632.88;5088706;28;20097;-57
2023/09/26 03:18:27;;;;;;;0.50;0.50;;;;;;;11.26;100.00;100634.31;5091479;28;20028;-58
2023/09/26 03:20:53;;;;;;;0.50;0.50;;;;;;;11.24;100.00;100633.47;5087137;28;20086;-58
2023/09/26 03:23:24;;;;;;;0.50;0.50;;;;;;;11.29;100.00;100628.00;5071100;28;20032;-57
2023/09/26 03:25:49;;;;;;;0.50;0.50;;;;;;;11.32;100.00;100643.91;5071075;28;20063;-58
2023/09/26 03:28:15;;;;;;;0.50;0.50;;;;;;;11.33;100.00;100632.34;5073381;28;20073;-58
2023/09/26 03:30:41;;;;;;;0.60;0.60;;;;;;;11.30;100.00;100635.97;5070906;28;20025;-58
2023/09/26 03:33:07;;;;;;;0.50;0.50;;;;;;;11.27;100.00;100638.69;5076700;28;20042;-58
2023/09/26 03:35:32;;;;;;;0.40;0.40;;;;;;;11.25;100.00;100639.69;5082681;28;20342;-57
2023/09/26 03:37:58;;;;;;;0.50;0.50;;;;;;;11.25;100.00;100631.69;5091741;28;20028;-58
2023/09/26 03:40:23;;;;;;;0.50;0.50;;;;;;;11.21;100.00;100640.66;5077101;28;20077;-57
2023/09/26 03:42:49;;;;;;;0.50;0.50;;;;;;;11.19;100.00;100634.47;5073190;28;20040;-58
2023/09/26 03:45:14;;;;;;;0.50;0.50;;;;;;;11.08;100.00;100620.56;5074824;28;20528;-58
2023/09/26 03:47:39;;;;;;;0.60;0.60;;;;;;;11.11;100.00;100639.13;5087322;28;20032;-58
2023/09/26 03:50:06;;;;;;;0.50;0.50;;;;;;;11.08;100.00;100628.56;5091109;28;20031;-58
2023/09/26 03:52:31;;;;;;;0.50;0.50;;;;;;;11.13;100.00;100642.63;5071646;28;20143;-58
2023/09/26 03:54:57;;;;;;;0.60;0.60;;;;;;;11.14;100.00;100644.38;5079376;28;20111;-57
2023/09/26 03:57:22;;;;;;;0.50;0.50;;;;;;;11.14;100.00;100644.38;5091703;28;20044;-58
2023/09/26 03:59:51;;;;;;;0.50;0.50;;;;;;;11.10;100.00;100632.06;5081162;28;20103;-58
2023/09/26 04:02:17;;;;;;;0.50;0.50;;;;;;;11.03;100.00;100635.78;5088884;28;20049;-58
2023/09/26 04:04:42;;;;;;;0.50;0.50;;;;;;;11.00;100.00;100646.50;5088715;28;20103;-58
2023/09/26 04:07:08;;;;;;;0.60;0.60;;;;;;;10.90;100.00;100637.00;5071309;28;20468;-58
2023/09/26 04:09:34;;;;;;;0.50;0.50;;;;;;;10.97;100.00;100641.28;5070644;28;20039;-58
2023/09/26 04:12:02;;;;;;;0.50;0.50;;;;;;;10.95;100.00;100645.75;5075363;28;20043;-57
2023/09/26 04:14:27;;;;;;;0.50;0.50;;;;;;;10.94;100.00;100636.88;5070243;28;20042;-58
2023/09/26 04:16:53;;;;;;;0.50;0.50;;;;;;;10.92;100.00;100637.84;5072747;28;20036;-58
2023/09/26 04:19:18;;;;;;;0.60;0.60;;;;;;;10.88;100.00;100634.38;5090213;28;20043;-58
2023/09/26 04:21:44;;;;;;;0.50;0.50;;;;;;;10.89;100.00;100624.63;5071748;28;20081;-58
2023/09/26 04:24:10;;;;;;;0.50;0.50;;;;;;;10.88;100.00;100620.19;5086355;28;20066;-58
2023/09/26 04:26:35;;;;;;;0.60;0.60;;;;;;;10.87;100.00;100631.75;5089829;28;20105;-58
2023/09/26 04:29:01;;;;;;;0.60;0.60;;;;;;;10.85;100.00;100628.25;5087121;28;20865;-58
2023/09/26 04:31:27;;;;;;;0.50;0.50;;;;;;;10.81;100.00;100622.13;5090640;28;20115;-58
2023/09/26 04:33:53;;;;;;;0.50;0.50;;;;;;;10.80;100.00;100622.16;5090798;28;20111;-57
2023/09/26 04:36:18;;;;;;;0.60;0.60;;;;;;;10.74;100.00;100627.63;5086649;28;20027;-58
2023/09/26 04:38:45;;;;;;;0.60;0.60;;;;;;;10.67;100.00;100608.28;5090295;28;20039;-57
2023/09/26 04:41:13;;;;;;;0.60;0.60;;;;;;;10.66;100.00;100611.84;5083958;28;20068;-58
2023/09/26 04:43:38;;;;;;;0.60;0.60;;;;;;;10.67;100.00;100626.91;5089799;28;20114;-58
2023/09/26 04:46:14;;;;;;;0.60;0.60;;;;;;;10.60;100.00;100619.97;5090133;28;20042;-57
2023/09/26 04:48:40;;;;;;;0.60;0.60;;;;;;;10.61;100.00;100633.22;5090702;28;20024;-58
2023/09/26 04:51:09;;;;;;;0.60;0.60;;;;;;;10.52;100.00;100625.47;5080728;28;21270;-58
2023/09/26 04:53:35;;;;;;;0.50;0.50;;;;;;;10.57;100.00;100620.94;5090405;28;20036;-58
2023/09/26 04:56:02;;;;;;;0.52;0.52;;;;;;;10.53;100.00;100616.56;5084674;28;20494;-57
2023/09/26 04:58:29;;;;;;;0.60;0.60;;;;;;;10.60;100.00;100628.84;5078804;28;20424;-56
2023/09/26 05:00:54;;;;;;;0.50;0.50;;;;;;;10.56;100.00;100628.91;5087938;28;20101;-57
2023/09/26 05:03:20;;;;;;;0.60;0.60;;;;;;;10.51;100.00;100631.69;5088860;28;20036;-57
2023/09/26 05:05:45;;;;;;;0.50;0.50;;;;;;;10.48;100.00;100623.78;5087954;28;20028;-57
2023/09/26 05:08:11;;;;;;;0.60;0.60;;;;;;;10.48;100.00;100633.53;5084290;28;20063;-57
2023/09/26 05:10:37;;;;;;;0.60;0.60;;;;;;;10.46;100.00;100636.22;5087831;28;20051;-57
2023/09/26 05:13:05;;;;;;;0.60;0.60;;;;;;;10.45;100.00;100629.19;5086906;28;20105;-57
2023/09/26 05:15:33;;;;;;;0.60;0.60;;;;;;;10.43;100.00;100630.09;5085821;28;20487;-58
2023/09/26 05:17:58;;;;;;;0.60;0.60;;;;;;;10.42;100.00;100641.66;5070046;28;20025;-58
2023/09/26 05:20:24;;;;;;;0.60;0.60;;;;;;;10.42;100.00;100631.91;5068307;28;20086;-58
2023/09/26 05:22:49;;;;;;;0.60;0.60;;;;;;;10.41;100.00;100637.25;5070941;28;20119;-58
2023/09/26 05:25:16;;;;;;;0.63;0.63;;;;;;;10.39;100.00;100634.59;5085122;28;20072;-58
2023/09/26 05:27:43;;;;;;;0.60;0.60;;;;;;;10.42;100.00;100637.22;5087623;28;20506;-58
2023/09/26 05:30:09;;;;;;;0.60;0.60;;;;;;;10.50;100.00;100637.94;5082218;28;20157;-58
2023/09/26 05:32:35;;;;;;;0.60;0.60;;;;;;;10.58;100.00;100641.28;5088800;28;20023;-58
2023/09/26 05:35:01;;;;;;;0.50;0.50;;;;;;;10.59;100.00;100629.72;5086285;28;20042;-57
2023/09/26 05:37:27;;;;;;;0.60;0.60;;;;;;;10.73;100.00;100639.16;5089843;28;20039;-58
2023/09/26 05:39:53;;;;;;;0.57;0.57;;;;;;;10.79;100.00;100636.38;5086093;28;20036;-58
2023/09/26 05:42:18;;;;;;;0.60;0.60;;;;;;;10.86;100.00;100633.53;5089543;28;20032;-58
2023/09/26 05:44:44;;;;;;;0.70;0.70;;;;;;;10.92;100.00;100635.19;5090180;28;20173;-57
2023/09/26 05:47:09;;;;;;;0.60;0.60;;;;;;;11.00;100.00;100641.19;5089979;28;20016;-58
2023/09/26 05:49:34;;;;;;;0.50;0.50;;;;;;;11.07;100.00;100642.78;5081548;28;20046;-57
2023/09/26 05:52:00;;;;;;;0.50;0.50;;;;;;;11.08;100.00;100641.88;5069434;28;20088;-58
2023/09/26 05:54:30;;;;;;;0.63;0.63;;;;;;;11.18;100.00;100640.72;5071877;28;20035;-58
2023/09/26 05:56:55;;;;;;;0.60;0.60;;;;;;;11.25;100.00;100647.66;5089464;28;20024;-58
2023/09/26 05:59:20;;;;;;;0.50;0.50;;;;;;;11.28;100.00;100650.25;5082787;28;20038;-58
2023/09/26 06:01:46;;;;;;;0.60;0.60;;;;;;;11.40;100.00;100657.94;5089361;28;20085;-57
2023/09/26 06:04:11;;;;;;;0.60;0.60;;;;;;;11.49;100.00;100657.69;5063906;28;20074;-58
2023/09/26 06:06:36;;;;;;;0.60;0.60;;;;;;;11.60;100.00;100659.16;5068211;28;20124;-57
2023/09/26 06:09:02;;;;;;;0.50;0.50;;;;;;;11.72;100.00;100665.97;5068449;28;20025;-58
2023/09/26 06:11:27;;;;;;;0.50;0.50;;;;;;;11.83;100.00;100654.09;5064548;28;20055;-58
2023/09/26 06:13:53;;;;;;;0.60;0.60;;;;;;;11.98;100.00;100657.28;5088495;28;20390;-58
2023/09/26 06:16:19;;;;;;;0.40;0.40;;;;;;;11.98;100.00;100626.13;5077558;28;20025;-58
2023/09/26 06:18:44;;;;;;;0.50;0.50;;;;;;;12.29;100.00;100652.81;5069935;28;20024;-58
2023/09/26 06:21:10;;;;;;;0.50;0.50;;;;;;;12.43;100.00;100656.81;5070148;28;20384;-58
2023/09/26 06:23:36;;;;;;;0.50;0.50;;;;;;;12.56;100.00;100663.53;5069036;28;20031;-58
2023/09/26 06:26:02;;;;;;;0.50;0.50;;;;;;;12.68;100.00;100663.16;5071280;28;20033;-57
2023/09/26 06:28:28;;;;;;;0.40;0.40;;;;;;;12.81;100.00;100652.97;5072975;28;20031;-57
2023/09/26 06:30:53;;;;;;;0.40;0.40;;;;;;;12.93;100.00;100661.44;5076501;28;20031;-57
2023/09/26 06:33:19;;;;;;;0.50;0.50;;;;;;;13.02;100.00;100655.84;5093437;28;20440;-57
2023/09/26 06:35:44;;;;;;;0.50;0.50;;;;;;;13.16;100.00;100661.59;5092168;28;20456;-57
2023/09/26 06:38:09;;;;;;;0.45;0.45;;;;;;;13.21;100.00;100659.66;5092607;28;20085;-58
2023/09/26 06:40:35;;;;;;;0.40;0.40;;;;;;;13.28;100.00;100655.00;5082847;28;20457;-57
2023/09/26 06:43:02;;;;;;;0.40;0.40;;;;;;;13.43;100.00;100664.28;5091127;28;20030;-58
2023/09/26 06:45:28;;;;;;;0.40;0.40;;;;;;;13.51;100.00;100657.75;5087929;28;20089;-58
2023/09/26 06:47:54;;;;;;;0.40;0.40;;;;;;;13.56;100.00;100665.63;5092438;28;20499;-60
2023/09/26 06:50:21;;;;;;;0.40;0.40;;;;;;;13.62;100.00;100660.06;5089693;28;20019;-59
2023/09/26 06:52:47;;;;;;;0.30;0.30;;;;;;;13.61;100.00;100661.88;5074072;28;20028;-59
2023/09/26 06:55:12;;;;;;;0.40;0.40;;;;;;;13.57;100.00;100667.38;5080621;28;20482;-59
2023/09/26 06:57:39;;;;;;;0.40;0.40;;;;;;;13.47;100.00;100665.94;5092190;28;20106;-59
2023/09/26 07:00:05;;;;;;;0.40;0.40;;;;;;;13.48;100.00;100675.69;5087675;28;20387;-59
2023/09/26 07:02:31;;;;;;;0.40;0.40;;;;;;;13.54;100.00;100684.38;5081021;28;20020;-59
2023/09/26 07:04:57;;;;;;;0.50;0.50;;;;;;;13.56;100.00;100671.84;5091103;28;20032;-59
2023/09/26 07:07:23;;;;;;;0.40;0.40;;;;;;;13.74;100.00;100678.38;5091586;28;20043;-59
2023/09/26 07:09:49;;;;;;;0.40;0.40;;;;;;;13.84;100.00;100672.63;5083423;28;20048;-59
2023/09/26 07:12:14;;;;;;;0.40;0.40;;;;;;;13.91;100.00;100678.63;5072879;28;20075;-59
2023/09/26 07:14:40;;;;;;;0.40;0.40;;;;;;;13.86;100.00;100680.59;5091722;28;20075;-59
2023/09/26 07:17:09;;;;;;;0.40;0.40;;;;;;;13.86;100.00;100675.25;5092396;28;20475;-59
2023/09/26 07:19:34;;;;;;;0.40;0.40;;;;;;;13.97;100.00;100678.44;5088952;28;20043;-59
2023/09/26 07:22:00;;;;;;;0.32;0.32;;;;;;;14.05;100.00;100682.56;5092213;28;20028;-59
2023/09/26 07:24:25;;;;;;;0.40;0.40;;;;;;;14.25;100.00;100680.06;5083340;28;20925;-59
2023/09/26 07:26:51;;;;;;;0.40;0.40;;;;;;;14.54;100.00;100676.31;5072392;28;20476;-59
2023/09/26 07:29:17;;;;;;;0.40;0.40;;;;;;;14.85;100.00;100687.56;5071984;28;20040;-59
2023/09/26 07:31:42;;;;;;;0.40;0.40;;;;;;;15.14;100.00;100687.28;5089298;28;20054;-59
2023/09/26 07:34:08;;;;;;;0.30;0.30;;;;;;;15.38;100.00;100688.09;5092195;28;20031;-59
2023/09/26 07:36:34;;;;;;;0.40;0.40;;;;;;;15.93;100.00;100686.66;5091853;28;20024;-59
2023/09/26 07:38:59;;;;;;;0.30;0.30;;;;;;;16.42;94.97;100676.34;5088736;28;20052;-59
2023/09/26 07:41:25;;;;;;;0.30;0.30;;;;;;;17.16;91.88;100675.50;5066596;28;20587;-59
2023/09/26 07:43:50;;;;;;;0.30;0.30;;;;;;;18.78;85.52;100681.31;5091958;28;20032;-59
2023/09/26 07:46:16;;;;;;;0.25;0.25;;;;;;;20.52;75.11;100673.56;5076207;28;20028;-59
2023/09/26 07:48:42;;;;;;;0.30;0.30;;;;;;;21.83;65.01;100677.53;5071546;28;20028;-59
2023/09/26 07:51:09;;;;;;;0.20;0.20;;;;;;;22.75;61.79;100676.44;5082674;28;20027;-59
2023/09/26 07:53:35;;;;;;;0.30;0.30;;;;;;;23.19;57.34;100680.34;5091574;28;20105;-59
2023/09/26 07:56:01;;;;;;;0.20;0.20;;;;;;;23.36;54.85;100674.56;5085484;28;20065;-60
2023/09/26 07:58:27;;;;;;;0.20;0.20;;;;;;;24.01;54.28;100675.00;5090893;28;20102;-57
2023/09/26 08:00:54;;;;;;;0.20;0.20;;;;;;;24.37;53.02;100673.97;5086238;28;20059;-57
2023/09/26 08:03:20;;;;;;;0.10;0.10;;;;;;;24.39;53.11;100682.88;5074532;28;20027;-57
2023/09/26 08:05:46;;;;;;;0.20;0.20;;;;;;;24.64;51.46;100678.06;5070177;28;20051;-58
2023/09/26 08:08:11;;;;;;;0.20;0.20;;;;;;;24.66;51.96;100680.72;5070404;28;20024;-57
2023/09/26 08:10:38;;;;;;;0.17;0.17;;;;;;;24.58;51.19;100688.59;5072494;28;20852;-57
2023/09/26 08:13:04;;;;;;;0.10;0.10;;;;;;;24.73;50.70;100687.41;5070963;28;20111;-57
2023/09/26 08:15:31;;;;;;;0.10;0.10;;;;;;;24.76;50.20;100676.25;5072929;28;20071;-57
2023/09/26 08:17:57;;;;;;;0.15;0.15;;;;;;;24.70;49.02;100684.94;5086567;28;20170;-57
2023/09/26 08:20:24;;;;;;;0.10;0.10;;;;;;;24.54;50.71;100671.66;5069624;28;20103;-57
2023/09/26 08:22:49;;;;;;;0.10;0.10;;;;;;;24.49;50.70;100678.44;5069801;28;20085;-57
2023/09/26 08:25:15;;;;;;;0.10;0.10;;;;;;;24.45;51.64;100675.09;5072068;28;20032;-57
2023/09/26 08:27:40;;;;;;;0.10;0.10;;;;;;;24.42;51.53;100671.75;5072616;28;20475;-57
2023/09/26 08:30:08;;;;;;;0.10;0.10;;;;;;;24.08;52.11;100667.25;5075705;28;20373;-57
2023/09/26 08:32:33;;;;;;;0.10;0.10;;;;;;;24.31;52.86;100669.03;5089424;28;20028;-57
2023/09/26 08:34:58;;;;;;;0.10;0.10;;;;;;;24.76;51.87;100656.38;5071385;28;20092;-57
2023/09/26 08:37:24;;;;;;;0.10;0.10;;;;;;;24.58;51.02;100661.38;5073101;28;20037;-57
2023/09/26 08:39:51;;;;;;;0.10;0.10;;;;;;;24.19;52.10;100664.53;5079248;28;20082;-57
2023/09/26 08:42:25;;;;;;;0.10;0.10;;;;;;;24.47;53.12;100659.53;5089081;28;20024;-57
2023/09/26 08:44:50;;;;;;;0.10;0.10;;;;;;;24.85;51.71;100659.19;5089816;28;20035;-57
2023/09/26 08:47:16;;;;;;;0.10;0.10;;;;;;;25.08;51.17;100655.47;5079224;28;20028;-57
2023/09/26 08:49:44;;;;;;;0.10;0.10;;;;;;;25.34;49.58;100661.47;5081575;28;20028;-57
2023/09/26 08:52:10;;;;;;;0.10;0.10;;;;;;;25.32;49.67;100653.41;5067835;28;20120;-57
2023/09/26 08:54:35;;;;;;;0.10;0.10;;;;;;;25.22;48.78;100652.44;5051466;28;20119;-57
2023/09/26 08:57:01;;;;;;;0.10;0.10;;;;;;;25.65;48.49;100645.16;5068997;28;20040;-57
2023/09/26 08:59:31;;;;;;;0.10;0.10;;;;;;;25.87;47.16;100653.25;5067824;28;20449;-57
2023/09/26 09:01:56;;;;;;;0.10;0.10;;;;;;;26.04;47.65;100648.25;5067887;28;20455;-57
2023/09/26 09:04:23;;;;;;;0.10;0.10;;;;;;;26.06;48.19;100647.13;5051709;28;20035;-57
2023/09/26 09:07:00;;;;;;;0.10;0.10;;;;;;;26.07;48.25;100645.25;5069029;28;20434;-57
2023/09/26 09:09:25;;;;;;;0.05;0.05;;;;;;;26.07;48.56;100642.53;5085845;28;20039;-57
2023/09/26 09:11:51;;;;;;;0.10;0.10;;;;;;;26.30;47.82;100635.94;5079848;28;20020;-57
2023/09/26 09:14:30;;;;;;;0.03;0.03;;;;;;;26.44;47.03;100643.78;5088075;28;20589;-57
2023/09/26 09:16:56;;;;;;;0.10;0.10;;;;;;;26.33;47.82;100643.84;5074486;28;20475;-57
2023/09/26 09:19:22;;;;;;;0.10;0.10;;;;;;;26.55;47.36;100633.63;5079656;28;20024;-57
2023/09/26 09:21:47;;;;;;;0.10;0.10;;;;;;;26.89;47.60;100635.09;5073076;28;20040;-57
2023/09/26 09:24:12;;;;;;;0.00;0.00;;;;;;;27.25;46.25;100630.88;5053851;28;20027;-58
2023/09/26 09:26:38;;;;;;;0.10;0.10;;;;;;;26.97;45.36;100631.66;5081508;28;20024;-58
2023/09/26 09:29:18;;;;;;;0.10;0.10;;;;;;;27.21;46.19;100633.03;5069445;28;20032;-58
2023/09/26 09:31:44;;;;;;;0.00;0.00;;;;;;;27.31;45.86;100630.38;5067403;28;20028;-57
2023/09/26 09:34:09;;;;;;;0.00;0.00;;;;;;;27.50;45.07;100607.63;5070798;28;20036;-58
2023/09/26 09:36:39;;;;;;;0.00;0.00;;;;;;;28.06;45.73;100605.91;5077788;28;20028;-57
2023/09/26 09:39:08;;;;;;;0.00;0.00;;;;;;;28.32;43.98;100609.75;5069630;28;21025;-57
2023/09/26 09:41:37;;;;;;;0.00;0.00;;;;;;;28.53;43.61;100609.56;5069992;28;20017;-57
2023/09/26 09:44:03;;;;;;;0.00;0.00;;;;;;;28.34;43.20;100607.72;5072861;28;20021;-57
2023/09/26 09:46:33;;;;;;;0.00;0.00;;;;;;;27.97;43.37;100612.28;5067648;28;20574;-57
2023/09/26 09:49:02;;;;;;;0.00;0.00;;;;;;;28.18;43.45;100604.75;5069787;28;20361;-57
2023/09/26 09:51:28;;;;;;;0.00;0.00;;;;;;;27.98;44.32;100601.19;5068189;28;20060;-57
2023/09/26 09:53:54;;;;;;;0.00;0.00;;;;;;;28.16;43.63;100607.63;5083420;28;20059;-57
2023/09/26 09:56:24;;;;;;;0.00;0.00;;;;;;;28.04;43.95;100599.75;5071718;28;20035;-57
2023/09/26 09:58:59;;;;;;;0.00;0.00;;;;;;;28.12;43.41;100600.72;5069638;28;20036;-57
2023/09/26 10:01:26;;;;;;;0.00;0.00;;;;;;;28.68;43.32;100599.88;5067331;28;20055;-57
2023/09/26 10:03:52;;;;;;;0.00;0.00;;;;;;;28.86;41.66;100607.13;5070702;28;20497;-57
2023/09/26 10:06:18;;;;;;;0.00;0.00;;;;;;;29.21;42.83;100590.78;5083158;28;20269;-57
2023/09/26 10:08:47;;;;;;;0.00;0.00;;;;;;;29.33;41.16;100592.28;5085104;28;20068;-57
2023/09/26 10:11:14;;;;;;;0.00;0.00;;;;;;;29.48;42.10;100588.00;5071123;28;20079;-57
2023/09/26 10:13:41;;;;;;;0.00;0.00;;;;;;;28.93;41.22;100580.00;5068372;28;20053;-57
2023/09/26 10:16:11;;;;;;;0.00;0.00;;;;;;;29.39;41.84;100585.34;5077193;28;20078;-57
2023/09/26 10:18:39;;;;;;;0.00;0.00;;;;;;;29.62;41.69;100578.38;5068220;28;20028;-58
2023/09/26 10:21:20;;;;;;;0.00;0.00;;;;;;;29.72;40.78;100584.63;5068169;28;20103;-57
2023/09/26 10:24:21;;;;;;;0.00;0.00;;;;;;;29.88;41.24;100573.81;5068119;28;20399;-57
2023/09/26 10:26:48;;;;;;;0.00;0.00;;;;;;;29.84;41.52;100575.16;4998431;28;20137;-57
2023/09/26 10:29:14;;;;;;;0.00;0.00;;;;;;;30.24;40.58;100580.97;5056116;28;20593;-57
2023/09/26 10:31:43;;;;;;;0.00;0.00;;;;;;;29.52;42.02;100574.84;5070523;28;20024;-57
2023/09/26 10:34:08;;;;;;;0.00;0.00;;;;;;;29.79;41.66;100573.88;5079884;28;20024;-57
2023/09/26 10:36:34;;;;;;;0.00;0.00;;;;;;;29.88;41.07;100568.34;5085752;28;20047;-57
2023/09/26 10:39:05;;;;;;;0.00;0.00;;;;;;;29.98;41.40;100566.34;5068446;28;20476;-57
2023/09/26 10:41:32;;;;;;;0.00;0.00;;;;;;;30.37;41.08;100566.81;5069606;28;20054;-57
2023/09/26 10:43:57;;;;;;;0.00;0.00;;;;;;;30.77;39.81;100562.38;5078594;28;20089;-58
2023/09/26 10:46:23;;;;;;;0.00;0.00;;;;;;;29.85;39.86;100557.69;5066932;28;20059;-57
2023/09/26 10:48:48;;;;;;;0.00;0.00;;;;;;;30.05;40.99;100553.69;5069517;28;20106;-57
2023/09/26 10:51:16;;;;;;;0.00;0.00;;;;;;;30.04;41.24;100557.47;5068052;28;20028;-57
2023/09/26 10:53:44;;;;;;;0.00;0.00;;;;;;;30.24;40.64;100556.28;5066771;28;20056;-57
2023/09/26 10:56:09;;;;;;;0.00;0.00;;;;;;;30.39;40.49;100568.38;5077177;28;20021;-58
2023/09/26 10:58:35;;;;;;;0.00;0.00;;;;;;;29.95;39.28;100557.56;5067843;28;20387;-57
2023/09/26 11:01:01;;;;;;;0.00;0.00;;;;;;;30.17;39.82;100563.38;5069852;28;20029;-57
2023/09/26 11:03:28;;;;;;;0.00;0.00;;;;;;;30.38;40.15;100561.13;5067811;28;20032;-57
2023/09/26 11:05:55;;;;;;;0.00;0.00;;;;;;;30.43;40.30;100558.78;5083382;28;20470;-57
2023/09/26 11:08:22;;;;;;;0.00;0.00;;;;;;;30.69;39.15;100554.09;5086217;28;20078;-57
2023/09/26 11:10:50;;;;;;;0.00;0.00;;;;;;;30.82;38.96;100556.44;5077004;28;20067;-57
2023/09/26 11:13:17;;;;;;;0.00;0.00;;;;;;;30.91;38.73;100558.16;5074251;28;20111;-58
2023/09/26 11:15:45;;;;;;;0.00;0.00;;;;;;;30.97;38.75;100553.91;5074455;28;20471;-58